Date,TemperatureHighF,TemperatureAvgF,TemperatureLowF,DewpointHighF,DewpointAvgF,DewpointLowF,HumidityHigh,HumidityAvg,HumidityLow,PressureMaxIn,PressureMinIn,WindSpeedMaxMPH,WindSpeedAvgMPH,GustSpeedMaxMPH,PrecipitationSumIn
2013-1-1,43,39,35,42,36,26,96,87,66,30.03,29.89,4,0,9,0.61
2013-1-2,43,38,36,42,35,32,96,91,83,30.08,29.89,3,0,13,0.03
2013-1-3,44,36,29,34,29,20,87,75,50,30.24,30.06,2,0,5,0.00
2013-1-4,43,31,24,26,19,14,83,63,40,30.32,30.24,3,0,10,0.00
2013-1-5,53,34,20,29,19,11,77,57,30,30.32,30.15,0,0,3,0.03
2013-1-6,43,38,35,38,32,27,91,79,66,30.19,30.04,3,0,7,0.05
2013-1-7,59,39,28,35,24,18,75,57,29,30.33,30.19,5,0,13,0.00
2013-1-8,61,42,29,34,22,7,69,46,19,30.32,30.20,5,0,14,0.00
2013-1-9,49,43,36,45,33,20,87,68,45,30.39,30.22,0,0,5,0.08
2013-1-10,68,58,48,54,48,44,89,71,55,30.39,30.14,9,2,19,0.00
2013-1-11,65,60,56,57,50,44,82,70,59,30.15,30.01,10,4,20,0.05
2013-1-12,74,66,56,62,57,51,89,74,60,30.09,29.96,3,0,9,0.00
2013-1-13,75,64,56,56,51,46,88,63,43,30.02,29.91,5,1,13,0.56
2013-1-14,59,47,40,56,46,39,96,95,88,30.20,29.98,2,0,8,2.29
2013-1-15,45,42,40,44,41,39,96,96,96,30.11,29.89,2,0,5,2.75
2013-1-16,53,48,44,52,47,43,96,96,96,30.00,29.83,5,0,9,0.20
2013-1-17,44,39,32,43,38,31,96,96,96,30.00,29.87,4,1,10,0.00
2013-1-18,47,35,25,40,29,22,96,79,63,30.45,30.33,1,0,6,0.10
2013-1-19,50,34,23,36,26,19,91,74,48,30.34,30.09,1,0,6,0.00
2013-1-20,55,40,30,34,28,23,80,63,37,30.11,30.04,4,0,9,0.00
2013-1-21,48,35,26,29,12,-11,81,45,19,30.08,29.98,7,2,14,0.00
2013-1-22,32,24,17,-5,-13,-18,19,19,19,30.24,30.07,7,2,13,0.00
2013-1-23,45,31,22,16,-3,-14,48,23,19,30.26,30.02,4,0,9,0.00
2013-1-24,43,32,21,27,4,-15,57,32,19,30.33,30.00,10,2,16,0.00
2013-1-25,32,27,20,28,12,-16,87,59,19,30.26,30.01,1,0,8,0.00
2013-1-26,44,34,28,38,28,20,93,80,57,30.28,30.09,2,0,8,0.13
2013-1-27,55,37,23,37,26,17,84,66,42,30.35,30.23,2,0,8,0.00
2013-1-28,63,49,38,42,37,30,81,64,43,30.27,30.14,2,0,8,0.00
2013-1-29,80,59,44,52,45,39,87,63,26,30.16,29.86,7,1,13,0.00
2013-1-30,65,57,42,58,51,36,96,82,64,29.84,29.46,10,4,18,1.94
2013-1-31,41,35,31,37,19,11,85,55,32,29.94,29.57,10,4,19,0.03
2013-2-1,42,25,16,26,-1,-16,77,35,19,30.29,29.86,13,4,22,0.00
2013-2-2,30,24,17,25,12,-3,80,61,36,30.26,29.97,1,0,7,0.00
2013-2-3,40,34,29,35,24,15,91,68,51,30.07,29.89,10,3,19,0.08
2013-2-4,50,34,22,28,18,11,72,54,35,30.05,29.88,0,0,2,0.00
2013-2-5,56,44,35,39,30,21,67,57,42,29.93,29.87,4,0,9,0.00
2013-2-6,61,46,36,37,25,5,81,50,19,30.13,29.93,2,0,7,0.00
2013-2-7,59,46,38,37,29,19,73,52,33,30.09,29.88,9,1,18,0.00
2013-2-8,53,43,35,48,34,22,96,71,42,30.18,29.83,8,2,14,0.15
2013-2-9,62,40,26,28,16,-2,71,44,19,30.27,30.15,1,0,6,0.00
2013-2-10,63,48,36,42,21,5,74,38,19,30.17,29.92,12,6,24,0.13
2013-2-11,57,52,45,51,42,30,92,70,46,30.05,29.90,9,2,17,0.03
2013-2-12,57,45,36,32,23,13,65,44,19,30.11,29.83,1,0,6,0.03
2013-2-13,47,42,36,44,36,30,89,80,65,29.90,29.60,10,1,14,0.23
2013-2-14,56,43,33,31,26,20,76,52,25,30.00,29.90,2,0,10,0.00
2013-2-15,58,40,32,35,28,22,83,64,33,30.03,29.91,10,1,15,0.03
2013-2-16,36,30,22,30,16,-8,84,60,19,29.99,29.88,8,1,14,0.00
2013-2-17,38,28,20,6,-5,-14,51,25,19,30.17,29.99,9,3,17,0.00
2013-2-18,63,40,20,21,4,-16,47,24,19,30.22,29.91,12,2,23,0.00
2013-2-19,52,42,33,42,19,-5,92,47,19,30.05,29.84,11,4,21,0.15
2013-2-20,43,33,24,9,0,-11,45,26,19,30.13,30.06,5,1,12,0.00
2013-2-21,60,38,20,33,8,-13,71,31,19,30.17,29.94,6,0,12,0.28
2013-2-22,61,48,40,39,36,30,81,63,41,30.05,29.92,12,5,23,0.13
2013-2-23,57,48,43,49,42,38,91,79,65,29.96,29.78,1,0,5,0.08
2013-2-24,56,44,34,44,22,-2,92,49,19,30.00,29.83,4,1,9,0.00
2013-2-25,65,44,30,31,20,10,54,40,19,29.99,29.82,12,2,23,0.00
2013-2-26,65,48,39,47,35,25,87,63,41,29.82,29.39,12,4,22,0.25
2013-2-27,51,41,38,32,30,27,79,64,42,29.77,29.60,7,2,14,0.00
2013-2-28,40,36,33,29,23,18,76,60,45,29.90,29.72,7,3,14,0.00
2013-3-1,40,35,33,30,27,23,82,73,65,29.90,29.84,1,0,8,0.00
2013-3-2,38,34,32,34,27,17,88,77,50,29.90,29.83,7,1,10,0.03
2013-3-3,32,28,23,13,9,5,61,46,34,30.01,29.93,6,2,10,0.00
2013-3-4,58,36,20,18,8,0,60,34,19,30.10,29.94,1,0,10,0.00
2013-3-5,49,41,33,48,29,0,96,68,19,29.95,29.55,12,1,22,1.27
2013-3-6,33,30,26,27,23,17,87,78,61,30.16,29.73,8,3,13,0.00
2013-3-7,36,32,30,27,24,22,84,73,60,30.25,30.14,0,0,3,0.00
2013-3-8,57,39,26,29,19,8,71,50,19,30.32,30.22,1,0,1,0.00
2013-3-9,71,47,27,31,22,16,69,41,19,30.23,30.09,0,0,0,0.00
2013-3-10,75,60,48,30,24,17,38,27,19,30.09,29.97,10,3,10,0.00
2013-3-11,60,54,52,50,45,27,91,73,32,29.96,29.71,15,4,15,0.64
2013-3-12,52,44,38,50,42,35,96,92,90,29.87,29.76,6,2,12,0.15
2013-3-13,42,36,30,28,15,-4,73,46,19,30.19,29.97,9,3,9,0.00
2013-3-14,48,34,24,10,5,-2,51,31,19,30.27,30.14,5,1,5,0.00
2013-3-15,66,48,30,35,22,0,57,38,21,30.16,29.83,6,1,6,0.00
2013-3-16,75,65,54,43,38,34,48,39,27,29.84,29.71,8,3,8,0.00
2013-3-17,74,63,53,49,43,40,66,49,32,29.91,29.79,2,0,2,0.00
2013-3-18,67,53,49,48,44,36,92,74,38,29.86,29.72,12,3,20,0.94
2013-3-19,58,47,37,50,26,2,96,51,19,30.04,29.76,10,3,17,0.15
2013-3-20,56,42,30,23,6,-7,62,24,19,30.05,29.79,10,2,20,0.00
2013-3-21,39,29,20,11,-6,-15,41,21,19,29.94,29.84,8,3,15,0.00
2013-3-22,47,33,18,14,-1,-15,51,24,19,30.00,29.92,1,0,7,0.00
2013-3-23,57,45,37,34,25,1,62,46,19,29.96,29.72,1,0,5,0.00
2013-3-24,65,49,40,54,41,33,90,75,45,29.74,29.33,7,2,20,0.94
2013-3-25,39,34,29,34,25,22,84,71,56,29.90,29.49,12,4,21,0.00
2013-3-26,36,32,29,31,25,23,87,76,60,30.17,29.90,6,2,12,0.00
2013-3-27,48,36,31,27,18,2,80,53,19,30.24,30.15,3,1,9,0.00
2013-3-28,56,39,24,26,12,-1,68,37,19,30.26,30.17,5,1,12,0.00
2013-3-29,53,39,26,37,23,8,83,56,19,30.25,30.17,4,0,8,0.05
2013-3-30,67,50,40,45,38,35,86,66,35,30.17,29.96,0,0,6,0.00
2013-3-31,62,53,48,54,48,39,96,83,61,29.97,29.79,3,0,9,0.41
2013-4-1,62,52,43,53,41,27,96,71,35,29.99,29.83,10,2,18,0.03
2013-4-2,58,45,34,28,16,5,58,35,19,30.14,29.99,4,0,8,0.00
2013-4-3,66,45,29,22,8,-7,45,23,19,30.22,30.11,2,0,10,0.00
2013-4-4,44,40,38,35,21,2,85,55,19,30.14,29.91,3,0,9,1.10
2013-4-5,68,49,38,48,36,30,96,66,25,30.02,29.90,2,0,7,0.03
2013-4-6,83,56,36,40,30,19,78,43,19,30.13,29.99,8,1,12,0.00
2013-4-7,78,63,53,37,30,24,44,30,19,30.10,29.99,7,2,17,0.00
2013-4-8,86,67,57,45,40,35,52,40,19,30.05,29.95,6,1,13,0.00
2013-4-9,90,69,54,52,45,41,68,46,19,30.13,29.98,3,0,8,0.00
2013-4-10,89,72,58,54,49,47,70,47,24,30.07,29.85,4,0,9,0.00
2013-4-11,91,77,61,58,47,36,88,38,19,29.87,29.62,9,2,16,0.48
2013-4-12,68,59,51,58,46,31,96,66,29,29.88,29.55,5,1,10,0.23
2013-4-13,73,57,44,41,31,19,73,41,19,29.99,29.88,4,0,8,0.00
2013-4-14,79,60,43,45,33,25,69,41,19,30.00,29.88,6,1,15,0.08
2013-4-15,87,67,53,55,49,46,81,57,24,30.05,29.88,5,1,13,0.03
2013-4-16,90,73,60,54,51,47,72,50,23,30.18,30.05,5,1,10,0.00
2013-4-17,71,65,60,63,57,51,92,78,49,30.25,30.01,1,0,6,1.12
2013-4-18,91,72,59,61,54,44,90,58,24,30.01,29.79,5,2,12,0.00
2013-4-19,72,60,46,60,49,30,92,70,49,29.99,29.65,5,2,13,0.28
2013-4-20,63,48,35,32,24,13,73,43,19,30.21,29.99,2,0,4,0.00
2013-4-21,75,54,38,35,27,18,61,38,19,30.33,30.19,3,0,10,0.00
2013-4-22,79,59,42,38,30,21,63,38,19,30.28,30.08,4,0,9,0.00
2013-4-23,55,49,44,35,27,23,52,42,36,30.16,30.11,2,0,8,0.00
2013-4-28,56,55,54,54,52,50,96,87,84,29.95,29.88,3,0,8,0.87
2013-4-29,74,62,53,56,50,47,91,69,42,29.98,29.90,0,0,2,0.00
2013-4-30,89,67,52,59,50,47,89,59,23,30.05,29.91,1,0,6,0.00
2013-5-1,85,65,61,52,45,44,59,49,33,30.16,30.11,1,0,6,0.00
2013-5-2,79,65,57,53,49,46,74,58,36,30.17,30.09,3,0,8,0.00
2013-5-3,77,63,53,53,46,40,80,57,32,30.12,29.96,1,0,6,0.00
2013-5-4,72,59,52,47,41,33,79,52,38,29.97,29.87,1,0,6,0.10
2013-5-5,62,55,52,55,49,45,92,81,70,29.88,29.74,3,0,9,0.71
2013-5-6,78,58,50,62,50,44,96,76,30,29.86,29.72,3,0,7,0.33
2013-5-7,67,54,50,51,47,44,89,78,54,29.90,29.82,0,0,2,0.00
2013-5-10,78,68,56,60,58,51,84,71,45,29.99,29.89,0,0,2,0.03
2013-5-11,72,63,56,66,58,50,92,83,73,29.92,29.80,1,0,5,0.56
2013-5-12,66,57,49,47,33,24,86,43,26,30.05,29.97,1,0,6,0.00
2013-5-13,70,53,40,40,26,16,74,41,19,30.16,30.05,1,0,5,0.00
2013-5-14,81,62,41,46,38,23,68,43,19,30.17,29.98,0,0,7,0.00
2013-5-15,91,73,59,54,49,46,67,45,23,30.09,29.94,0,0,5,0.00
2013-5-16,78,70,61,56,52,46,65,52,41,30.02,29.94,0,0,2,0.00
2013-5-17,87,70,58,60,54,51,80,60,31,30.06,29.96,0,0,1,0.00
2013-5-18,76,66,61,67,60,55,90,82,62,30.04,29.97,0,0,3,0.41
2013-5-19,85,72,64,68,63,60,96,75,46,30.03,29.95,0,0,0,0.03
2013-5-20,87,70,63,66,62,59,96,78,41,30.09,29.96,0,0,0,0.00
2013-5-21,72,64,63,60,59,55,91,84,56,29.99,29.89,3,0,9,0.66
2013-5-22,94,68,59,70,62,57,96,82,36,29.94,29.81,2,0,7,0.69
2013-5-23,81,68,61,67,60,52,96,78,45,29.95,29.82,2,0,8,0.36
2013-5-24,74,64,57,52,42,31,74,49,21,30.17,29.95,0,0,2,0.00
2013-5-25,77,66,49,46,40,33,81,40,24,30.29,30.14,0,0,0,0.00
2013-5-26,81,67,56,48,42,34,69,42,19,30.24,30.14,0,0,0,0.00
2013-5-27,91,70,53,55,50,43,79,52,24,30.17,30.04,0,0,0,0.00
2013-5-28,90,75,67,59,54,52,63,50,30,30.14,30.03,0,0,0,0.00
2013-5-29,71,69,66,59,54,51,71,61,50,30.16,30.06,0,0,0,0.00
2013-5-31,76,76,76,53,53,53,46,45,44,30.03,30.03,0,0,0,0.00
2013-6-1,98,79,68,62,57,51,81,48,24,30.04,29.91,0,0,0,0.15
2013-6-2,72,69,67,70,64,60,96,84,72,29.96,29.86,0,0,0,1.15
2013-6-3,83,71,64,68,61,54,96,75,44,29.96,29.86,0,0,0,0.00
2013-6-4,93,73,59,63,57,53,88,60,27,30.02,29.94,0,0,0,0.00
2013-6-5,94,73,65,64,61,57,96,67,30,30.02,29.88,0,0,5,0.51
2013-6-6,84,72,64,70,64,62,96,80,52,29.91,29.73,0,0,0,0.03
2013-6-7,85,72,67,70,65,61,91,78,49,29.83,29.68,0,0,2,0.36
2013-6-8,89,71,61,67,62,58,96,75,38,30.04,29.82,0,0,1,0.71
2013-6-9,87,71,63,70,63,58,92,77,47,30.09,29.95,2,0,7,1.17
2013-6-10,81,71,68,71,64,57,96,81,50,29.96,29.84,0,0,4,0.18
2013-6-11,92,74,65,67,61,57,96,67,33,30.00,29.90,0,0,0,0.03
2013-6-12,97,79,67,70,65,60,83,63,35,30.01,29.89,0,0,3,0.00
2013-6-13,86,77,73,68,65,62,77,67,55,29.90,29.72,1,0,5,0.00
2013-6-14,91,71,59,64,56,50,96,63,28,30.02,29.85,0,0,0,0.00
2013-6-15,93,73,58,61,55,52,83,57,28,30.10,30.01,0,0,0,0.00
2013-6-16,93,76,64,63,59,57,79,58,33,30.09,29.98,0,0,0,0.00
2013-6-17,70,68,67,66,64,62,92,88,74,30.03,29.99,0,0,0,0.71
2013-6-18,72,70,67,68,65,61,94,84,75,29.94,29.82,0,0,3,1.15
2013-6-19,92,72,61,68,61,55,96,72,32,30.06,29.91,0,0,2,0.00
2013-6-20,97,76,64,67,61,58,88,64,28,30.16,30.06,0,0,3,0.00
2013-6-21,76,70,67,64,60,58,80,70,62,30.21,30.15,0,0,3,0.00
2013-6-22,74,72,71,55,55,54,57,54,49,30.11,30.09,0,0,0,0.00
2013-6-23,99,78,66,64,58,52,74,54,22,30.18,30.07,0,0,1,0.00
2013-6-24,95,78,69,67,62,60,78,59,32,30.18,30.04,0,0,2,0.00
2013-6-25,89,76,69,68,65,62,83,69,45,30.13,30.00,0,0,2,0.00
2013-6-26,91,76,69,70,66,63,89,73,43,30.02,29.86,0,0,4,0.05
2013-6-27,84,72,65,75,67,61,96,85,66,29.88,29.77,4,0,8,0.31
2013-6-28,85,73,68,73,68,65,96,83,58,29.81,29.65,0,0,0,0.05
2013-6-29,93,75,66,70,61,53,96,68,28,29.69,29.63,0,0,1,0.00
2013-6-30,94,75,63,64,58,54,84,59,26,29.77,29.67,1,0,6,0.00
2013-7-1,96,74,67,66,63,57,88,72,28,29.89,29.76,2,0,5,0.15
2013-7-2,94,74,66,71,64,59,92,75,35,30.04,29.88,1,0,5,0.23
2013-7-3,78,72,66,71,65,62,96,78,72,30.16,30.02,0,0,4,0.41
2013-7-4,79,71,64,75,67,63,96,88,73,30.16,30.08,0,0,3,0.46
2013-7-5,82,74,69,68,66,61,94,76,60,30.16,30.09,1,0,6,0.05
2013-7-6,94,74,68,69,65,61,92,75,34,30.14,30.04,1,0,6,0.36
2013-7-7,73,70,68,71,67,65,96,90,85,30.14,30.06,0,0,0,0.15
2013-7-8,76,70,68,71,67,66,96,92,80,30.18,30.12,0,0,0,0.00
2013-7-9,97,78,67,70,65,63,88,66,35,30.15,30.03,0,0,0,0.00
2013-7-10,93,75,70,71,67,61,91,77,42,30.06,29.92,0,0,0,0.43
2013-7-11,85,75,70,73,69,64,96,83,56,29.96,29.86,0,0,0,0.10
2013-7-12,91,74,67,70,63,57,93,71,35,29.96,29.88,0,0,0,0.00
2013-7-13,94,76,65,65,61,58,84,62,32,30.07,29.94,0,0,0,0.00
2013-7-14,85,75,69,72,65,60,90,72,57,30.22,30.05,0,0,0,0.13
2013-7-15,98,79,68,68,63,59,84,62,28,30.28,30.20,0,0,0,0.00
2013-7-16,100,81,68,68,62,58,81,56,26,30.31,30.21,0,0,0,0.00
2013-7-17,95,78,70,71,66,63,88,69,39,30.27,30.14,2,0,2,0.64
2013-7-18,97,76,68,73,68,64,96,77,37,30.19,30.04,0,0,0,0.00
2013-7-19,94,78,69,71,67,65,90,71,42,30.09,29.95,0,0,0,0.99
2013-7-20,93,75,68,74,68,65,92,81,45,30.01,29.91,0,0,0,0.18
2013-7-21,84,73,69,73,68,64,92,85,61,30.00,29.91,0,0,0,0.79
2013-7-22,90,73,68,73,68,65,96,85,46,29.97,29.80,1,0,4,0.18
2013-7-23,87,73,68,73,68,63,96,87,52,29.91,29.80,1,0,5,1.15
2013-7-24,82,74,68,74,70,67,96,88,64,29.86,29.79,0,0,3,0.05
2013-7-27,71,70,69,64,63,63,82,80,76,29.90,29.90,1,0,29,0.10
2013-7-28,89,73,30,69,61,28,93,70,38,30.03,29.88,0,0,1,0.13
2013-7-29,91,70,50,62,53,25,86,60,24,30.17,30.03,2,0,57,0.00
2013-7-30,80,69,58,62,57,51,86,68,46,30.20,30.11,10,0,29,0.00
2013-7-31,75,69,64,70,65,61,96,87,75,30.14,29.95,0,0,0,0.18
2013-8-1,89,74,70,73,65,46,96,76,28,29.96,29.91,0,0,0,0.00
2013-8-2,89,75,65,67,61,54,90,65,34,30.02,29.94,0,0,1,0.00
2013-8-3,86,74,66,67,63,59,87,70,47,30.02,29.96,4,0,57,0.00
2013-8-4,89,76,31,69,60,18,89,62,30,30.04,29.96,0,0,0,0.00
2013-8-5,92,74,63,64,58,53,85,61,29,30.04,29.95,2,0,57,0.03
2013-8-6,89,77,68,65,62,58,81,61,40,29.99,29.92,0,0,4,0.00
2013-8-7,83,76,73,73,66,63,80,71,60,30.01,29.94,8,0,57,52.86
2013-8-8,80,76,71,69,67,64,83,73,70,30.00,29.96,0,0,0,0.00
2013-8-9,79,79,79,68,68,68,70,70,70,30.00,30.00,0,0,0,0.00
2013-8-14,67,64,61,52,51,50,69,63,56,30.01,0.00,0,0,0,0.00
2013-8-15,84,69,57,61,56,50,84,64,41,30.01,29.78,1,0,2,0.00